createdAt,value
2023-04-18T00:01:31.007Z,7.78
2023-04-18T00:03:58.035Z,7.76
2023-04-18T00:06:25.965Z,7.76
2023-04-18T00:08:52.637Z,7.68
2023-04-18T00:11:22.358Z,7.67
2023-04-18T00:13:51.924Z,7.58
2023-04-18T00:16:19.579Z,7.58
2023-04-18T00:18:46.081Z,7.52
2023-04-18T00:21:13.514Z,7.60
2023-04-18T00:23:40.029Z,7.61
2023-04-18T00:26:06.444Z,7.52
2023-04-18T00:28:32.933Z,7.49
2023-04-18T00:30:59.499Z,7.36
2023-04-18T00:33:26.095Z,7.34
2023-04-18T00:35:53.841Z,7.32
2023-04-18T00:38:20.653Z,7.35
2023-04-18T00:40:47.147Z,7.39
2023-04-18T00:43:14.742Z,7.38
2023-04-18T00:45:41.286Z,7.33
2023-04-18T00:48:07.947Z,7.25
2023-04-18T00:50:36.519Z,7.27
2023-04-18T00:53:03.434Z,7.16
2023-04-18T00:55:30.201Z,7.18
2023-04-18T00:57:56.656Z,7.19
2023-04-18T01:00:23.165Z,7.15
2023-04-18T01:02:53.227Z,7.16
2023-04-18T01:05:22.915Z,7.11
2023-04-18T01:07:52.144Z,7.14
2023-04-18T01:10:18.770Z,7.13
2023-04-18T01:12:45.238Z,7.11
2023-04-18T01:15:11.840Z,7.14
2023-04-18T01:17:38.511Z,7.13
2023-04-18T01:20:06.439Z,7.23
2023-04-18T01:22:33.538Z,7.26
2023-04-18T01:25:00.211Z,7.23
2023-04-18T01:27:26.924Z,7.29
2023-04-18T01:29:53.636Z,7.33
2023-04-18T01:32:22.552Z,7.36
2023-04-18T01:34:49.192Z,7.34
2023-04-18T01:37:15.673Z,7.31
2023-04-18T01:39:42.126Z,7.28
2023-04-18T01:42:08.629Z,7.31
2023-04-18T01:44:35.082Z,7.38
2023-04-18T01:47:01.779Z,7.38
2023-04-18T01:49:28.388Z,7.40
2023-04-18T01:51:55.052Z,7.41
2023-04-18T01:54:21.672Z,7.41
2023-04-18T01:56:48.191Z,7.41
2023-04-18T01:59:14.598Z,7.46
2023-04-18T02:01:41.095Z,7.45
2023-04-18T02:04:07.660Z,7.53
2023-04-18T02:06:34.252Z,7.53
2023-04-18T02:09:00.797Z,7.60
2023-04-18T02:11:27.292Z,7.54
2023-04-18T02:13:54.962Z,7.46
2023-04-18T02:16:21.570Z,7.53
2023-04-18T02:18:52.383Z,7.53
2023-04-18T02:21:18.985Z,7.45
2023-04-18T02:23:45.429Z,7.56
2023-04-18T02:26:11.852Z,7.46
2023-04-18T02:28:39.124Z,7.51
2023-04-18T02:31:06.266Z,7.46
2023-04-18T02:33:32.775Z,7.46
2023-04-18T02:35:59.281Z,7.45
2023-04-18T02:38:28.604Z,7.46
2023-04-18T02:40:56.397Z,7.43
2023-04-18T02:43:23.002Z,7.42
2023-04-18T02:45:49.587Z,7.38
2023-04-18T02:48:16.124Z,7.37
2023-04-18T02:50:42.629Z,7.37
2023-04-18T02:53:09.080Z,7.35
2023-04-18T02:55:35.540Z,7.39
2023-04-18T02:58:01.952Z,7.41
2023-04-18T03:00:31.483Z,7.48
2023-04-18T03:03:00.906Z,7.52
2023-04-18T03:05:30.870Z,7.51
2023-04-18T03:08:00.593Z,7.54
2023-04-18T03:10:27.946Z,7.59
2023-04-18T03:12:54.421Z,7.54
2023-04-18T03:15:21.067Z,7.63
2023-04-18T03:17:47.563Z,7.62
2023-04-18T03:20:14.473Z,7.61
2023-04-18T03:22:40.960Z,7.61
2023-04-18T03:25:08.131Z,7.67
2023-04-18T03:27:34.600Z,7.58
2023-04-18T03:30:02.187Z,7.47
2023-04-18T03:32:30.172Z,7.48
2023-04-18T03:34:56.594Z,7.30
2023-04-18T03:37:23.062Z,7.26
2023-04-18T03:39:49.549Z,7.39
2023-04-18T03:42:15.991Z,7.28
2023-04-18T03:44:42.464Z,7.27
2023-04-18T03:47:08.960Z,7.31
2023-04-18T03:49:35.559Z,7.17
2023-04-18T03:52:02.032Z,7.15
2023-04-18T03:54:30.708Z,7.14
2023-04-18T03:57:01.671Z,6.98
2023-04-18T03:59:28.154Z,6.92
2023-04-18T04:01:54.709Z,6.90
2023-04-18T04:04:21.502Z,6.72
2023-04-18T04:06:48.109Z,6.63
2023-04-18T04:09:14.632Z,6.67
2023-04-18T04:11:41.134Z,6.74
2023-04-18T04:14:07.668Z,6.69
2023-04-18T04:16:34.168Z,6.80
2023-04-18T04:19:00.788Z,6.86
2023-04-18T04:21:27.280Z,6.81
2023-04-18T04:23:53.747Z,6.79
2023-04-18T04:26:23.083Z,6.84
2023-04-18T04:28:51.610Z,6.80
2023-04-18T04:31:18.690Z,6.84
2023-04-18T04:33:46.610Z,6.82
2023-04-18T04:36:15.682Z,6.89
2023-04-18T04:38:44.408Z,7.00
2023-04-18T04:41:11.772Z,7.01
2023-04-18T04:43:41.166Z,7.11
2023-04-18T04:46:08.707Z,7.01
2023-04-18T04:48:35.184Z,7.07
2023-04-18T04:51:02.506Z,7.01
2023-04-18T04:53:35.886Z,7.09
2023-04-18T04:56:04.738Z,7.08
2023-04-18T04:58:31.173Z,7.12
2023-04-18T05:00:57.693Z,7.18
2023-04-18T05:03:24.391Z,7.10
2023-04-18T05:05:51.052Z,7.14
2023-04-18T05:08:17.473Z,7.14
2023-04-18T05:10:44.430Z,7.06
2023-04-18T05:13:10.899Z,7.12
2023-04-18T05:15:37.762Z,7.16
2023-04-18T05:18:07.154Z,7.09
2023-04-18T05:20:36.611Z,7.10
2023-04-18T05:23:04.390Z,7.06
2023-04-18T05:25:32.120Z,7.13
2023-04-18T05:28:01.146Z,7.10
2023-04-18T05:30:29.860Z,7.15
2023-04-18T05:32:56.443Z,7.21
2023-04-18T05:35:23.024Z,7.22
2023-04-18T05:37:49.587Z,7.37
2023-04-18T05:40:16.124Z,7.35
2023-04-18T05:42:42.680Z,7.29
2023-04-18T05:45:09.540Z,7.30
2023-04-18T05:47:36.132Z,7.41
2023-04-18T05:50:03.628Z,7.34
2023-04-18T05:52:30.314Z,7.24
2023-04-18T05:54:56.817Z,7.25
2023-04-18T05:57:23.275Z,7.32
2023-04-18T05:59:49.745Z,7.36
2023-04-18T06:02:16.623Z,7.47
2023-04-18T06:04:43.380Z,7.43
2023-04-18T06:07:10.365Z,7.31
2023-04-18T06:09:36.866Z,7.35
2023-04-18T06:12:06.609Z,7.47
2023-04-18T06:14:37.062Z,7.52
2023-04-18T06:17:04.123Z,7.47
2023-04-18T06:19:30.713Z,7.59
2023-04-18T06:21:57.211Z,7.59
2023-04-18T06:24:23.821Z,7.63
2023-04-18T06:26:50.335Z,7.76
2023-04-18T06:29:18.219Z,7.70
2023-04-18T06:31:48.414Z,7.60
2023-04-18T06:34:15.218Z,7.56
2023-04-18T06:36:42.446Z,7.61
2023-04-18T06:39:08.925Z,7.62
2023-04-18T06:41:35.439Z,7.54
2023-04-18T06:44:04.746Z,7.58
2023-04-18T06:46:41.996Z,7.60
2023-04-18T06:49:08.557Z,7.67
2023-04-18T06:51:35.077Z,7.72
2023-04-18T06:54:03.962Z,7.79
2023-04-18T06:56:30.544Z,7.84
2023-04-18T06:58:56.982Z,7.72
2023-04-18T07:01:23.772Z,7.71
2023-04-18T07:03:50.394Z,7.69
2023-04-18T07:06:17.069Z,7.69
2023-04-18T07:08:43.516Z,7.76
2023-04-18T07:11:11.578Z,7.80
2023-04-18T07:13:38.128Z,7.87
2023-04-18T07:16:05.008Z,7.58
2023-04-18T07:18:37.854Z,7.83
2023-04-18T07:21:07.500Z,7.95
2023-04-18T07:23:37.639Z,8.14
2023-04-18T07:26:07.230Z,8.24
2023-04-18T07:28:34.402Z,8.40
2023-04-18T07:31:04.563Z,8.56
2023-04-18T07:33:34.598Z,8.71
2023-04-18T07:36:01.742Z,8.85
2023-04-18T07:38:29.135Z,8.84
2023-04-18T07:40:59.902Z,8.87
2023-04-18T07:43:26.894Z,8.89
2023-04-18T07:45:53.782Z,8.93
2023-04-18T07:48:25.295Z,9.11
2023-04-18T07:50:52.003Z,9.06
2023-04-18T07:53:18.710Z,8.94
2023-04-18T07:55:46.276Z,8.98
2023-04-18T07:58:13.524Z,8.96
2023-04-18T08:00:42.478Z,8.93
2023-04-18T08:03:12.698Z,9.11
2023-04-18T08:05:40.516Z,9.26
2023-04-18T08:08:08.452Z,9.46
2023-04-18T08:10:35.904Z,9.49
2023-04-18T08:13:04.535Z,9.60
2023-04-18T08:15:35.052Z,9.68
2023-04-18T08:18:05.024Z,9.93
2023-04-18T08:20:35.364Z,10.03
2023-04-18T08:23:07.949Z,9.99
2023-04-18T08:25:36.933Z,9.80
2023-04-18T08:28:07.208Z,9.98
2023-04-18T08:30:36.290Z,10.16
2023-04-18T08:33:07.080Z,10.25
2023-04-18T08:35:35.448Z,10.55
2023-04-18T08:38:06.146Z,10.93
2023-04-18T08:40:35.132Z,11.23
2023-04-18T08:43:05.418Z,11.26
2023-04-18T08:45:35.277Z,11.48
2023-04-18T08:48:06.056Z,11.78
2023-04-18T08:50:34.794Z,11.93
2023-04-18T08:53:01.557Z,12.08
2023-04-18T08:55:28.251Z,12.31
2023-04-18T08:57:55.799Z,12.51
2023-04-18T09:00:23.809Z,12.71
2023-04-18T09:02:55.171Z,12.72
2023-04-18T09:05:25.051Z,12.62
2023-04-18T09:07:53.787Z,12.67
2023-04-18T09:10:29.021Z,12.64
2023-04-18T09:12:56.902Z,12.66
2023-04-18T09:15:26.835Z,12.66
2023-04-18T09:17:56.251Z,12.33
2023-04-18T09:20:27.445Z,12.53
2023-04-18T09:22:57.974Z,12.54
2023-04-18T09:25:27.679Z,12.54
2023-04-18T09:27:54.859Z,12.45
2023-04-18T09:30:42.333Z,12.69
2023-04-18T09:33:10.247Z,12.72
2023-04-18T09:35:38.533Z,12.67
2023-04-18T09:38:07.565Z,12.63
2023-04-18T09:40:37.229Z,13.05
2023-04-18T09:43:19.224Z,13.76
2023-04-18T09:45:48.224Z,14.33
2023-04-18T09:48:15.161Z,14.56
2023-04-18T09:50:42.471Z,14.36
2023-04-18T09:53:11.730Z,14.04
2023-04-18T09:55:40.230Z,13.59
2023-04-18T09:58:08.764Z,13.30
2023-04-18T10:00:37.301Z,12.66
2023-04-18T10:03:10.008Z,12.45
2023-04-18T10:05:39.841Z,12.41
2023-04-18T10:08:07.491Z,12.44
2023-04-18T10:10:38.533Z,12.58
2023-04-18T10:13:21.645Z,12.74
2023-04-18T10:15:51.208Z,12.74
2023-04-18T10:18:25.153Z,12.94
2023-04-18T10:21:02.192Z,12.84
2023-04-18T10:23:40.964Z,12.59
2023-04-18T10:26:11.458Z,12.52
2023-04-18T10:28:53.295Z,12.80
2023-04-18T10:31:24.764Z,13.06
2023-04-18T10:36:30.391Z,13.28
2023-04-18T10:39:21.409Z,13.23
2023-04-18T10:41:51.811Z,13.23
2023-04-18T10:44:27.937Z,13.35
2023-04-18T10:46:54.366Z,13.43
2023-04-18T10:49:30.272Z,13.45
2023-04-18T10:52:00.988Z,13.49
2023-04-18T10:55:04.841Z,13.47
2023-04-18T10:57:38.823Z,13.42
2023-04-18T11:00:12.862Z,13.58
2023-04-18T11:02:40.546Z,13.91
2023-04-18T11:05:08.289Z,14.61
2023-04-18T11:07:48.630Z,15.06
2023-04-18T11:10:26.758Z,15.20
2023-04-18T11:12:54.751Z,15.21
2023-04-18T11:15:23.719Z,14.99
2023-04-18T11:18:07.679Z,14.54
2023-04-18T11:20:39.365Z,14.33
2023-04-18T11:23:22.563Z,14.53
2023-04-18T11:25:54.490Z,14.64
2023-04-18T11:28:24.754Z,15.07
2023-04-18T11:30:51.397Z,15.42
2023-04-18T11:33:18.025Z,15.72
2023-04-18T11:35:45.825Z,15.75
2023-04-18T11:38:13.837Z,16.03
2023-04-18T11:40:47.592Z,16.40
2023-04-18T11:43:20.870Z,16.56
2023-04-18T11:45:54.544Z,16.59
2023-04-18T11:48:21.498Z,16.32
2023-04-18T11:50:50.623Z,16.09
2023-04-18T11:53:38.775Z,16.22
2023-04-18T11:56:37.011Z,16.11
2023-04-18T11:59:10.103Z,15.73
2023-04-18T12:05:18.063Z,15.35
2023-04-18T12:07:45.845Z,15.55
2023-04-18T12:10:53.479Z,15.35
2023-04-18T12:17:06.760Z,14.91
2023-04-18T12:19:36.289Z,15.00
2023-04-18T12:22:06.884Z,14.87
2023-04-18T12:24:33.772Z,14.81
2023-04-18T12:27:00.309Z,14.81
2023-04-18T12:32:39.461Z,14.77
2023-04-18T12:35:55.968Z,14.72
2023-04-18T12:38:23.633Z,14.71
2023-04-18T12:40:53.908Z,14.69
2023-04-18T12:43:33.818Z,14.54
2023-04-18T12:46:01.567Z,14.74
2023-04-18T12:51:16.123Z,14.74
2023-04-18T12:53:42.556Z,14.88
2023-04-18T12:56:09.076Z,14.66
2023-04-18T12:58:38.058Z,14.65
2023-04-18T13:01:05.016Z,14.83
2023-04-18T13:03:31.988Z,14.96
2023-04-18T13:05:58.554Z,14.89
2023-04-18T13:08:25.127Z,15.00
2023-04-18T13:10:51.644Z,15.06
2023-04-18T13:13:18.134Z,15.17
2023-04-18T13:15:44.621Z,15.35
2023-04-18T13:18:11.211Z,15.52
2023-04-18T13:20:37.651Z,15.94
2023-04-18T13:23:04.448Z,16.27
2023-04-18T13:25:31.351Z,16.31
2023-04-18T13:27:58.524Z,16.55
2023-04-18T13:30:25.723Z,16.55
2023-04-18T13:32:52.450Z,16.70
2023-04-18T13:35:18.992Z,16.81
2023-04-18T13:37:46.305Z,16.89
2023-04-18T13:40:13.567Z,17.08
2023-04-18T13:42:40.069Z,17.30
2023-04-18T13:45:07.438Z,17.26
2023-04-18T13:47:35.854Z,17.15
2023-04-18T13:50:02.343Z,17.32
2023-04-18T13:52:28.885Z,17.58
2023-04-18T13:54:55.469Z,17.78
2023-04-18T13:57:23.111Z,18.20
2023-04-18T13:59:49.608Z,19.43
2023-04-18T14:02:16.178Z,20.36
2023-04-18T14:04:42.895Z,21.35
2023-04-18T14:07:11.148Z,22.14
2023-04-18T14:09:38.423Z,21.41
2023-04-18T14:12:05.365Z,20.63
2023-04-18T14:14:31.892Z,20.75
2023-04-18T14:16:58.434Z,21.15
2023-04-18T14:19:25.115Z,20.51
2023-04-18T14:21:55.632Z,19.71
2023-04-18T14:24:22.161Z,19.62
2023-04-18T14:26:48.682Z,19.36
2023-04-18T14:29:15.648Z,18.68
2023-04-18T14:31:42.368Z,18.12
2023-04-18T14:34:10.707Z,17.73
2023-04-18T14:36:37.223Z,17.54
2023-04-18T14:39:03.809Z,17.93
2023-04-18T14:41:30.430Z,18.15
2023-04-18T14:43:56.865Z,18.13
2023-04-18T14:46:23.378Z,17.98
2023-04-18T14:48:49.962Z,18.23
2023-04-18T14:51:16.897Z,19.28
2023-04-18T14:53:44.521Z,19.61
2023-04-18T14:56:11.234Z,19.32
2023-04-18T14:58:39.836Z,18.69
2023-04-18T15:01:06.322Z,17.93
2023-04-18T15:03:33.357Z,17.80
2023-04-18T15:06:00.080Z,18.11
2023-04-18T15:08:26.801Z,18.13
2023-04-18T15:10:53.466Z,17.92
2023-04-18T15:13:20.309Z,17.75
2023-04-18T15:15:57.108Z,17.58
2023-04-18T15:18:23.679Z,17.47
2023-04-18T15:20:51.518Z,17.57
2023-04-18T15:23:18.067Z,18.00
2023-04-18T15:25:45.167Z,18.91
2023-04-18T15:28:13.764Z,19.55
2023-04-18T15:30:42.958Z,19.69
2023-04-18T15:33:13.870Z,19.95
2023-04-18T15:35:42.896Z,20.00
2023-04-18T15:38:10.710Z,19.71
2023-04-18T15:40:38.198Z,19.23
2023-04-18T15:43:04.800Z,18.75
2023-04-18T15:45:31.275Z,18.46
2023-04-18T15:47:57.851Z,18.39
2023-04-18T15:50:24.459Z,18.54
2023-04-18T15:52:54.242Z,18.72
2023-04-18T15:55:20.893Z,18.78
2023-04-18T15:57:47.618Z,19.13
2023-04-18T16:00:17.639Z,19.22
2023-04-18T16:02:45.835Z,19.02
2023-04-18T16:05:13.379Z,18.68
2023-04-18T16:07:41.340Z,18.49
2023-04-18T16:10:10.657Z,18.41
2023-04-18T16:12:41.925Z,18.60
2023-04-18T16:15:12.616Z,18.80
2023-04-18T16:17:42.617Z,18.94
2023-04-18T16:20:13.344Z,19.11
2023-04-18T16:22:41.413Z,18.99
2023-04-18T16:25:12.227Z,19.24
2023-04-18T16:27:42.888Z,19.38
2023-04-18T16:30:11.143Z,19.33
2023-04-18T16:32:40.307Z,19.07
2023-04-18T16:35:10.747Z,18.74
2023-04-18T16:37:39.290Z,18.67
2023-04-18T16:40:07.202Z,18.40
2023-04-18T16:42:34.029Z,18.27
2023-04-18T16:45:01.845Z,18.31
2023-04-18T16:47:28.918Z,18.16
2023-04-18T16:49:55.586Z,17.74
2023-04-18T16:52:22.537Z,17.06
2023-04-18T16:54:52.625Z,16.49
2023-04-18T16:57:19.339Z,16.31
2023-04-18T16:59:45.806Z,15.98
2023-04-18T17:02:12.382Z,15.70
2023-04-18T17:04:42.195Z,15.48
2023-04-18T17:07:10.332Z,15.34
2023-04-18T17:09:36.809Z,15.06
2023-04-18T17:12:03.444Z,15.03
2023-04-18T17:14:29.888Z,14.99
2023-04-18T17:16:56.339Z,15.08
2023-04-18T17:19:23.624Z,15.06
2023-04-18T17:21:50.898Z,14.97
2023-04-18T17:24:18.707Z,15.02
2023-04-18T17:26:45.185Z,14.85
2023-04-18T17:29:11.726Z,14.74
2023-04-18T17:31:41.842Z,14.48
2023-04-18T17:34:11.212Z,14.35
2023-04-18T17:39:41.026Z,13.70
2023-04-18T17:42:50.374Z,14.00
2023-04-18T17:45:28.170Z,13.93
2023-04-18T17:47:57.051Z,14.17
2023-04-18T17:50:25.934Z,14.05
2023-04-18T17:55:51.279Z,13.61
2023-04-18T18:01:15.078Z,13.87
2023-04-18T18:03:42.340Z,13.73
2023-04-18T18:06:18.324Z,13.60
2023-04-18T18:08:44.861Z,13.60
2023-04-18T18:11:17.659Z,13.69
2023-04-18T18:13:44.414Z,13.63
2023-04-18T18:16:10.988Z,13.64
2023-04-18T18:19:02.547Z,13.67
2023-04-18T18:21:33.785Z,13.47
2023-04-18T18:24:00.580Z,13.45
2023-04-18T18:26:30.549Z,13.49
2023-04-18T18:28:57.374Z,13.41
2023-04-18T18:31:24.930Z,13.39
2023-04-18T18:33:52.026Z,13.30
2023-04-18T18:36:18.521Z,13.26
2023-04-18T18:38:45.138Z,13.18
2023-04-18T18:41:11.854Z,13.24
2023-04-18T18:45:02.212Z,13.26
2023-04-18T18:47:31.138Z,13.23
2023-04-18T18:49:57.782Z,13.13
2023-04-18T18:52:24.828Z,13.07
2023-04-18T18:54:53.202Z,12.97
2023-04-18T18:57:35.888Z,13.01
2023-04-18T19:00:02.397Z,12.78
2023-04-18T19:02:29.092Z,12.84
2023-04-18T19:04:55.861Z,12.84
2023-04-18T19:07:22.468Z,12.87
2023-04-18T19:09:49.472Z,12.84
2023-04-18T19:12:16.175Z,12.82
2023-04-18T19:14:42.708Z,12.85
2023-04-18T19:17:12.236Z,12.85
2023-04-18T19:19:38.726Z,12.78
2023-04-18T19:22:06.515Z,12.74
2023-04-18T19:24:33.023Z,12.65
2023-04-18T19:26:59.817Z,12.67
2023-04-18T19:29:49.722Z,12.62
2023-04-18T19:32:16.258Z,12.43
2023-04-18T19:34:45.573Z,12.53
2023-04-18T19:37:14.832Z,12.43
2023-04-18T19:39:44.715Z,12.47
2023-04-18T19:42:14.953Z,12.43
2023-04-18T19:44:44.453Z,12.40
2023-04-18T19:47:13.770Z,12.26
2023-04-18T19:49:42.882Z,12.48
2023-04-18T19:52:12.589Z,12.53
2023-04-18T19:54:39.069Z,12.50
2023-04-18T19:57:06.385Z,12.48
2023-04-18T19:59:32.834Z,12.24
2023-04-18T20:02:02.022Z,12.20
2023-04-18T20:04:31.537Z,12.19
2023-04-18T20:06:58.291Z,12.15
2023-04-18T20:09:24.789Z,12.08
2023-04-18T20:11:51.342Z,11.97
2023-04-18T20:14:18.012Z,12.10
2023-04-18T20:16:45.887Z,12.01
2023-04-18T20:19:14.878Z,12.09
2023-04-18T20:21:44.740Z,12.10
2023-04-18T20:24:15.552Z,12.05
2023-04-18T20:26:43.055Z,11.97
2023-04-18T20:29:12.930Z,11.88
2023-04-18T20:31:42.811Z,11.91
2023-04-18T20:34:10.492Z,11.85
2023-04-18T20:36:41.975Z,11.73
2023-04-18T20:39:14.427Z,11.75
2023-04-18T20:41:46.659Z,11.76
2023-04-18T20:44:14.150Z,11.70
2023-04-18T20:46:43.691Z,11.57
2023-04-18T20:49:10.443Z,11.48
2023-04-18T20:51:38.004Z,11.56
2023-04-18T20:54:05.389Z,11.46
2023-04-18T20:56:32.127Z,11.41
2023-04-18T20:58:58.604Z,11.49
2023-04-18T21:01:25.148Z,11.40
2023-04-18T21:03:51.756Z,11.36
2023-04-18T21:06:21.932Z,11.21
2023-04-18T21:08:48.702Z,11.08
2023-04-18T21:11:15.342Z,11.01
2023-04-18T21:13:41.842Z,10.98
2023-04-18T21:16:10.269Z,10.95
2023-04-18T21:18:37.029Z,10.94
2023-04-18T21:21:04.485Z,11.02
2023-04-18T21:23:31.013Z,10.84
2023-04-18T21:25:57.587Z,10.77
2023-04-18T21:28:24.032Z,10.83
2023-04-18T21:30:50.700Z,10.73
2023-04-18T21:33:17.222Z,10.71
2023-04-18T21:35:46.142Z,10.66
2023-04-18T21:38:12.615Z,10.50
2023-04-18T21:40:39.066Z,10.58
2023-04-18T21:43:05.489Z,10.50
2023-04-18T21:45:32.029Z,10.41
2023-04-18T21:47:58.640Z,10.42
2023-04-18T21:50:25.333Z,10.47
2023-04-18T21:52:51.912Z,10.44
2023-04-18T21:55:18.497Z,10.49
2023-04-18T21:57:45.435Z,10.48
2023-04-18T22:00:12.826Z,10.44
2023-04-18T22:02:39.425Z,10.40
2023-04-18T22:05:08.776Z,10.42
2023-04-18T22:07:40.787Z,10.49
2023-04-18T22:10:13.407Z,10.41
2023-04-18T22:12:40.024Z,10.40
2023-04-18T22:15:06.853Z,10.29
2023-04-18T22:17:34.759Z,10.18
2023-04-18T22:20:01.254Z,10.21
2023-04-18T22:22:27.775Z,10.19
2023-04-18T22:24:54.342Z,10.09
2023-04-18T22:27:20.796Z,9.91
2023-04-18T22:29:50.559Z,9.81
2023-04-18T22:32:20.770Z,9.54
2023-04-18T22:34:48.799Z,9.61
2023-04-18T22:37:15.267Z,9.56
2023-04-18T22:39:41.718Z,9.41
2023-04-18T22:42:08.149Z,9.34
2023-04-18T22:44:34.630Z,9.32
2023-04-18T22:47:01.417Z,9.42
2023-04-18T22:49:28.379Z,9.32
2023-04-18T22:51:54.849Z,9.37
2023-04-18T22:54:22.508Z,9.25
2023-04-18T22:56:52.325Z,9.44
2023-04-18T22:59:22.331Z,9.54
2023-04-18T23:01:49.907Z,9.66
2023-04-18T23:04:16.633Z,9.74
2023-04-18T23:06:43.751Z,9.81
2023-04-18T23:09:10.355Z,9.90
2023-04-18T23:11:36.832Z,9.91
2023-04-18T23:14:03.305Z,9.81
2023-04-18T23:16:29.926Z,9.62
2023-04-18T23:18:56.440Z,9.68
2023-04-18T23:21:22.870Z,9.64
2023-04-18T23:23:49.592Z,9.72
2023-04-18T23:26:16.352Z,9.63
2023-04-18T23:28:42.845Z,9.53
2023-04-18T23:31:09.694Z,9.64
2023-04-18T23:33:36.541Z,9.72
2023-04-18T23:36:03.324Z,9.61
2023-04-18T23:38:30.669Z,9.50
2023-04-18T23:40:57.130Z,9.57
2023-04-18T23:43:23.654Z,9.48
2023-04-18T23:45:50.895Z,9.50
2023-04-18T23:48:17.362Z,9.44
2023-04-18T23:50:48.683Z,9.48
2023-04-18T23:53:17.050Z,9.53
2023-04-18T23:55:43.653Z,9.39
2023-04-18T23:58:10.209Z,9.33
